sensor_id;sensor_type;location;lat;lon;timestamp;P1;durP1;ratioP1;P2;durP2;ratioP2
35907;SDS011;22003;50.320;8.054;2022-12-01T05:02:37;44.42;;;18.50;;
35907;SDS011;22003;50.320;8.054;2022-12-01T05:05:03;47.58;;;19.63;;
35907;SDS011;22003;50.320;8.054;2022-12-01T05:09:55;42.83;;;19.83;;
35907;SDS011;22003;50.320;8.054;2022-12-01T05:12:21;50.33;;;20.38;;
35907;SDS011;22003;50.320;8.054;2022-12-01T05:14:46;46.55;;;20.23;;
35907;SDS011;22003;50.320;8.054;2022-12-01T05:17:11;52.55;;;20.75;;
35907;SDS011;22003;50.320;8.054;2022-12-01T05:19:36;50.60;;;20.25;;
35907;SDS011;22003;50.320;8.054;2022-12-01T05:22:20;52.17;;;22.48;;
35907;SDS011;22003;50.320;8.054;2022-12-01T05:24:45;54.17;;;21.90;;
35907;SDS011;22003;50.320;8.054;2022-12-01T05:27:10;54.22;;;22.88;;
35907;SDS011;22003;50.320;8.054;2022-12-01T05:29:35;60.40;;;23.23;;
35907;SDS011;22003;50.320;8.054;2022-12-01T05:32:01;51.75;;;23.17;;
35907;SDS011;22003;50.320;8.054;2022-12-01T05:34:26;52.17;;;21.00;;
35907;SDS011;22003;50.320;8.054;2022-12-01T05:36:52;57.70;;;22.65;;
35907;SDS011;22003;50.320;8.054;2022-12-01T05:39:17;52.25;;;22.48;;
35907;SDS011;22003;50.320;8.054;2022-12-01T05:41:42;57.05;;;24.75;;
35907;SDS011;22003;50.320;8.054;2022-12-01T05:44:07;57.33;;;24.38;;
35907;SDS011;22003;50.320;8.054;2022-12-01T05:46:32;61.33;;;24.50;;
35907;SDS011;22003;50.320;8.054;2022-12-01T05:48:57;61.13;;;24.10;;
35907;SDS011;22003;50.320;8.054;2022-12-01T05:51:22;56.00;;;22.67;;
35907;SDS011;22003;50.320;8.054;2022-12-01T05:53:48;56.25;;;23.27;;
35907;SDS011;22003;50.320;8.054;2022-12-01T05:56:13;51.78;;;23.95;;
35907;SDS011;22003;50.320;8.054;2022-12-01T05:58:38;57.87;;;24.17;;
35907;SDS011;22003;50.320;8.054;2022-12-01T06:01:03;64.60;;;25.55;;
35907;SDS011;22003;50.320;8.054;2022-12-01T06:03:28;56.30;;;23.60;;
35907;SDS011;22003;50.320;8.054;2022-12-01T06:05:54;55.45;;;22.75;;
35907;SDS011;22003;50.320;8.054;2022-12-01T06:08:19;55.87;;;23.53;;
35907;SDS011;22003;50.320;8.054;2022-12-01T06:10:44;54.15;;;23.83;;
35907;SDS011;22003;50.320;8.054;2022-12-01T06:13:09;61.63;;;23.35;;
35907;SDS011;22003;50.320;8.054;2022-12-01T06:15:35;58.13;;;23.43;;
35907;SDS011;22003;50.320;8.054;2022-12-01T06:18:00;56.10;;;22.60;;
35907;SDS011;22003;50.320;8.054;2022-12-01T06:20:25;60.45;;;24.38;;
35907;SDS011;22003;50.320;8.054;2022-12-01T06:22:50;54.53;;;22.48;;
35907;SDS011;22003;50.320;8.054;2022-12-01T06:25:15;58.28;;;24.13;;
35907;SDS011;22003;50.320;8.054;2022-12-01T06:27:41;58.53;;;23.40;;
35907;SDS011;22003;50.320;8.054;2022-12-01T06:30:06;64.90;;;25.23;;
35907;SDS011;22003;50.320;8.054;2022-12-01T06:32:31;68.57;;;26.02;;
35907;SDS011;22003;50.320;8.054;2022-12-01T06:34:57;64.85;;;25.13;;
35907;SDS011;22003;50.320;8.054;2022-12-01T06:37:22;65.57;;;25.25;;
35907;SDS011;22003;50.320;8.054;2022-12-01T06:39:47;53.85;;;23.23;;
35907;SDS011;22003;50.320;8.054;2022-12-01T06:42:12;54.80;;;20.40;;
35907;SDS011;22003;50.320;8.054;2022-12-01T06:44:37;55.05;;;21.25;;
35907;SDS011;22003;50.320;8.054;2022-12-01T06:47:03;49.70;;;20.00;;
35907;SDS011;22003;50.320;8.054;2022-12-01T06:49:28;55.15;;;21.65;;
35907;SDS011;22003;50.320;8.054;2022-12-01T06:51:53;59.35;;;22.50;;
35907;SDS011;22003;50.320;8.054;2022-12-01T06:54:18;57.15;;;22.77;;
35907;SDS011;22003;50.320;8.054;2022-12-01T06:56:45;60.80;;;22.55;;
35907;SDS011;22003;50.320;8.054;2022-12-01T06:59:10;54.08;;;23.10;;
35907;SDS011;22003;50.320;8.054;2022-12-01T07:01:35;61.97;;;21.58;;
35907;SDS011;22003;50.320;8.054;2022-12-01T07:04:00;56.30;;;22.55;;
35907;SDS011;22003;50.320;8.054;2022-12-01T07:06:27;63.88;;;24.42;;
35907;SDS011;22003;50.320;8.054;2022-12-01T07:08:53;59.33;;;23.90;;
35907;SDS011;22003;50.320;8.054;2022-12-01T07:11:18;64.10;;;24.98;;
35907;SDS011;22003;50.320;8.054;2022-12-01T07:13:43;66.20;;;25.25;;
35907;SDS011;22003;50.320;8.054;2022-12-01T07:16:13;64.10;;;25.38;;
35907;SDS011;22003;50.320;8.054;2022-12-01T07:18:38;71.75;;;27.20;;
35907;SDS011;22003;50.320;8.054;2022-12-01T07:21:05;60.67;;;24.60;;
35907;SDS011;22003;50.320;8.054;2022-12-01T07:23:31;61.70;;;23.55;;
35907;SDS011;22003;50.320;8.054;2022-12-01T07:26:00;64.85;;;24.42;;
35907;SDS011;22003;50.320;8.054;2022-12-01T07:28:25;62.90;;;24.85;;
35907;SDS011;22003;50.320;8.054;2022-12-01T07:30:51;56.47;;;23.13;;
35907;SDS011;22003;50.320;8.054;2022-12-01T07:33:16;56.50;;;23.30;;
35907;SDS011;22003;50.320;8.054;2022-12-01T07:35:41;63.00;;;24.48;;
35907;SDS011;22003;50.320;8.054;2022-12-01T07:38:06;61.33;;;24.13;;
35907;SDS011;22003;50.320;8.054;2022-12-01T07:40:31;60.38;;;22.73;;
35907;SDS011;22003;50.320;8.054;2022-12-01T07:42:56;56.33;;;23.30;;
35907;SDS011;22003;50.320;8.054;2022-12-01T07:45:21;59.20;;;23.05;;
35907;SDS011;22003;50.320;8.054;2022-12-01T07:47:46;64.53;;;23.70;;
35907;SDS011;22003;50.320;8.054;2022-12-01T07:50:12;61.53;;;24.33;;
35907;SDS011;22003;50.320;8.054;2022-12-01T07:52:37;60.17;;;24.48;;
35907;SDS011;22003;50.320;8.054;2022-12-01T07:55:02;59.97;;;24.73;;
35907;SDS011;22003;50.320;8.054;2022-12-01T07:57:27;68.97;;;24.05;;
35907;SDS011;22003;50.320;8.054;2022-12-01T07:59:52;62.47;;;24.05;;
35907;SDS011;22003;50.320;8.054;2022-12-01T08:02:17;63.95;;;23.92;;
35907;SDS011;22003;50.320;8.054;2022-12-01T08:04:43;60.53;;;23.45;;
35907;SDS011;22003;50.320;8.054;2022-12-01T08:07:09;58.67;;;22.08;;
35907;SDS011;22003;50.320;8.054;2022-12-01T08:09:34;59.20;;;23.17;;
35907;SDS011;22003;50.320;8.054;2022-12-01T08:11:59;61.25;;;24.73;;
35907;SDS011;22003;50.320;8.054;2022-12-01T08:14:24;66.35;;;25.63;;
35907;SDS011;22003;50.320;8.054;2022-12-01T08:16:49;68.47;;;26.02;;
35907;SDS011;22003;50.320;8.054;2022-12-01T08:19:14;66.03;;;24.48;;
35907;SDS011;22003;50.320;8.054;2022-12-01T08:21:39;65.47;;;23.83;;
35907;SDS011;22003;50.320;8.054;2022-12-01T08:24:05;72.30;;;24.63;;
35907;SDS011;22003;50.320;8.054;2022-12-01T08:26:30;74.38;;;25.70;;
35907;SDS011;22003;50.320;8.054;2022-12-01T08:28:55;64.30;;;24.80;;
35907;SDS011;22003;50.320;8.054;2022-12-01T08:31:29;64.45;;;24.98;;
35907;SDS011;22003;50.320;8.054;2022-12-01T08:33:54;62.80;;;24.05;;
35907;SDS011;22003;50.320;8.054;2022-12-01T08:36:20;67.38;;;24.42;;
35907;SDS011;22003;50.320;8.054;2022-12-01T08:38:46;75.50;;;25.67;;
35907;SDS011;22003;50.320;8.054;2022-12-01T08:41:11;65.65;;;24.00;;
35907;SDS011;22003;50.320;8.054;2022-12-01T08:43:37;58.70;;;23.83;;
35907;SDS011;22003;50.320;8.054;2022-12-01T08:46:04;66.10;;;24.40;;
35907;SDS011;22003;50.320;8.054;2022-12-01T08:48:29;58.47;;;22.42;;
35907;SDS011;22003;50.320;8.054;2022-12-01T08:51:05;62.72;;;22.80;;
35907;SDS011;22003;50.320;8.054;2022-12-01T08:53:31;69.68;;;23.92;;
35907;SDS011;22003;50.320;8.054;2022-12-01T08:56:04;68.20;;;23.98;;
35907;SDS011;22003;50.320;8.054;2022-12-01T08:58:29;59.85;;;22.02;;
35907;SDS011;22003;50.320;8.054;2022-12-01T09:01:04;62.67;;;23.33;;
35907;SDS011;22003;50.320;8.054;2022-12-01T09:03:31;57.92;;;21.33;;
35907;SDS011;22003;50.320;8.054;2022-12-01T09:06:01;54.85;;;20.33;;
35907;SDS011;22003;50.320;8.054;2022-12-01T09:08:26;57.60;;;21.00;;
35907;SDS011;22003;50.320;8.054;2022-12-01T09:10:55;55.78;;;21.40;;
35907;SDS011;22003;50.320;8.054;2022-12-01T09:13:20;62.55;;;23.67;;
35907;SDS011;22003;50.320;8.054;2022-12-01T09:15:53;62.15;;;23.40;;
35907;SDS011;22003;50.320;8.054;2022-12-01T09:18:18;60.22;;;22.23;;
35907;SDS011;22003;50.320;8.054;2022-12-01T09:20:43;67.45;;;23.58;;
35907;SDS011;22003;50.320;8.054;2022-12-01T09:23:08;58.00;;;21.60;;
35907;SDS011;22003;50.320;8.054;2022-12-01T09:25:33;48.97;;;19.90;;
35907;SDS011;22003;50.320;8.054;2022-12-01T09:27:58;49.60;;;17.73;;
35907;SDS011;22003;50.320;8.054;2022-12-01T09:30:23;43.20;;;17.17;;
35907;SDS011;22003;50.320;8.054;2022-12-01T09:32:49;42.55;;;16.08;;
35907;SDS011;22003;50.320;8.054;2022-12-01T09:35:14;33.95;;;15.32;;
35907;SDS011;22003;50.320;8.054;2022-12-01T09:37:39;31.33;;;15.40;;
35907;SDS011;22003;50.320;8.054;2022-12-01T09:40:04;35.70;;;15.55;;
35907;SDS011;22003;50.320;8.054;2022-12-01T09:42:29;34.75;;;14.95;;
35907;SDS011;22003;50.320;8.054;2022-12-01T09:44:55;34.28;;;13.32;;
35907;SDS011;22003;50.320;8.054;2022-12-01T09:47:25;33.45;;;13.98;;
35907;SDS011;22003;50.320;8.054;2022-12-01T09:50:11;35.00;;;14.57;;
35907;SDS011;22003;50.320;8.054;2022-12-01T09:52:47;34.95;;;14.45;;
35907;SDS011;22003;50.320;8.054;2022-12-01T09:55:14;37.47;;;15.95;;
35907;SDS011;22003;50.320;8.054;2022-12-01T09:57:40;32.47;;;13.88;;
35907;SDS011;22003;50.320;8.054;2022-12-01T10:00:10;36.58;;;15.93;;
35907;SDS011;22003;50.320;8.054;2022-12-01T10:02:48;32.78;;;14.07;;
35907;SDS011;22003;50.320;8.054;2022-12-01T10:05:15;33.30;;;14.32;;
35907;SDS011;22003;50.320;8.054;2022-12-01T10:07:44;32.65;;;15.15;;
35907;SDS011;22003;50.320;8.054;2022-12-01T10:10:11;35.22;;;16.23;;
35907;SDS011;22003;50.320;8.054;2022-12-01T10:12:37;35.85;;;15.38;;
35907;SDS011;22003;50.320;8.054;2022-12-01T10:15:13;30.83;;;13.27;;
35907;SDS011;22003;50.320;8.054;2022-12-01T10:17:50;35.42;;;14.60;;
35907;SDS011;22003;50.320;8.054;2022-12-01T10:23:13;32.50;;;14.32;;
35907;SDS011;22003;50.320;8.054;2022-12-01T10:26:02;32.10;;;13.63;;
35907;SDS011;22003;50.320;8.054;2022-12-01T10:30:54;31.98;;;13.45;;
35907;SDS011;22003;50.320;8.054;2022-12-01T10:33:25;31.20;;;14.63;;
35907;SDS011;22003;50.320;8.054;2022-12-01T10:35:50;38.90;;;15.32;;
35907;SDS011;22003;50.320;8.054;2022-12-01T10:38:32;35.40;;;15.38;;
35907;SDS011;22003;50.320;8.054;2022-12-01T10:40:58;35.22;;;14.75;;
35907;SDS011;22003;50.320;8.054;2022-12-01T10:43:28;33.43;;;14.83;;
35907;SDS011;22003;50.320;8.054;2022-12-01T10:45:55;36.28;;;14.85;;
35907;SDS011;22003;50.320;8.054;2022-12-01T10:48:21;40.25;;;16.52;;
35907;SDS011;22003;50.320;8.054;2022-12-01T10:50:47;37.85;;;16.08;;
35907;SDS011;22003;50.320;8.054;2022-12-01T10:53:35;39.45;;;18.00;;
35907;SDS011;22003;50.320;8.054;2022-12-01T10:56:04;40.97;;;17.60;;
35907;SDS011;22003;50.320;8.054;2022-12-01T10:58:32;35.00;;;16.45;;
35907;SDS011;22003;50.320;8.054;2022-12-01T11:01:00;41.08;;;17.55;;
35907;SDS011;22003;50.320;8.054;2022-12-01T11:03:29;42.60;;;18.50;;
35907;SDS011;22003;50.320;8.054;2022-12-01T11:05:56;44.58;;;19.20;;
35907;SDS011;22003;50.320;8.054;2022-12-01T11:08:23;45.00;;;19.35;;
35907;SDS011;22003;50.320;8.054;2022-12-01T11:10:48;43.93;;;18.93;;
35907;SDS011;22003;50.320;8.054;2022-12-01T11:13:21;48.85;;;18.77;;
35907;SDS011;22003;50.320;8.054;2022-12-01T11:15:52;44.35;;;18.65;;
35907;SDS011;22003;50.320;8.054;2022-12-01T11:18:28;42.85;;;17.77;;
35907;SDS011;22003;50.320;8.054;2022-12-01T11:21:07;42.80;;;17.55;;
35907;SDS011;22003;50.320;8.054;2022-12-01T11:23:52;40.90;;;17.27;;
35907;SDS011;22003;50.320;8.054;2022-12-01T11:26:18;41.55;;;17.10;;
35907;SDS011;22003;50.320;8.054;2022-12-01T11:31:16;40.97;;;17.55;;
35907;SDS011;22003;50.320;8.054;2022-12-01T11:33:46;42.08;;;17.80;;
35907;SDS011;22003;50.320;8.054;2022-12-01T11:36:19;49.63;;;20.02;;
35907;SDS011;22003;50.320;8.054;2022-12-01T11:38:46;48.00;;;20.77;;
35907;SDS011;22003;50.320;8.054;2022-12-01T11:41:22;45.03;;;18.95;;
35907;SDS011;22003;50.320;8.054;2022-12-01T11:43:49;43.53;;;19.42;;
35907;SDS011;22003;50.320;8.054;2022-12-01T11:46:14;43.25;;;18.02;;
35907;SDS011;22003;50.320;8.054;2022-12-01T11:48:39;52.08;;;21.73;;
35907;SDS011;22003;50.320;8.054;2022-12-01T11:51:23;43.33;;;19.30;;
35907;SDS011;22003;50.320;8.054;2022-12-01T11:53:50;42.00;;;17.65;;
35907;SDS011;22003;50.320;8.054;2022-12-01T11:56:28;41.47;;;18.90;;
35907;SDS011;22003;50.320;8.054;2022-12-01T11:59:04;47.35;;;20.35;;
35907;SDS011;22003;50.320;8.054;2022-12-01T12:01:39;42.05;;;18.25;;
35907;SDS011;22003;50.320;8.054;2022-12-01T12:04:23;30.38;;;13.77;;
35907;SDS011;22003;50.320;8.054;2022-12-01T12:07:02;47.92;;;19.00;;
35907;SDS011;22003;50.320;8.054;2022-12-01T12:19:39;43.28;;;19.75;;
35907;SDS011;22003;50.320;8.054;2022-12-01T12:22:14;43.35;;;20.23;;
35907;SDS011;22003;50.320;8.054;2022-12-01T12:27:27;40.10;;;19.27;;
35907;SDS011;22003;50.320;8.054;2022-12-01T12:33:05;44.05;;;20.23;;
35907;SDS011;22003;50.320;8.054;2022-12-01T12:35:38;44.28;;;19.55;;
35907;SDS011;22003;50.320;8.054;2022-12-01T12:40:55;41.60;;;19.05;;
35907;SDS011;22003;50.320;8.054;2022-12-01T12:43:23;40.42;;;18.80;;
35907;SDS011;22003;50.320;8.054;2022-12-01T12:46:07;43.10;;;18.85;;
35907;SDS011;22003;50.320;8.054;2022-12-01T12:51:03;50.45;;;20.25;;
35907;SDS011;22003;50.320;8.054;2022-12-01T12:53:34;42.50;;;18.95;;
35907;SDS011;22003;50.320;8.054;2022-12-01T12:56:03;46.42;;;20.25;;
35907;SDS011;22003;50.320;8.054;2022-12-01T12:58:34;47.95;;;19.90;;
35907;SDS011;22003;50.320;8.054;2022-12-01T13:01:00;42.80;;;17.85;;
35907;SDS011;22003;50.320;8.054;2022-12-01T13:08:22;50.37;;;20.53;;
35907;SDS011;22003;50.320;8.054;2022-12-01T13:10:54;45.72;;;20.52;;
35907;SDS011;22003;50.320;8.054;2022-12-01T13:15:47;49.70;;;20.40;;
35907;SDS011;22003;50.320;8.054;2022-12-01T13:20:48;54.63;;;20.70;;
35907;SDS011;22003;50.320;8.054;2022-12-01T13:23:13;49.67;;;19.88;;
35907;SDS011;22003;50.320;8.054;2022-12-01T13:25:40;48.38;;;19.95;;
35907;SDS011;22003;50.320;8.054;2022-12-01T13:28:14;51.97;;;20.98;;
35907;SDS011;22003;50.320;8.054;2022-12-01T13:30:41;49.83;;;20.38;;
35907;SDS011;22003;50.320;8.054;2022-12-01T13:33:20;51.83;;;21.10;;
35907;SDS011;22003;50.320;8.054;2022-12-01T13:35:49;45.88;;;19.20;;
35907;SDS011;22003;50.320;8.054;2022-12-01T13:38:20;48.65;;;20.40;;
35907;SDS011;22003;50.320;8.054;2022-12-01T13:40:46;52.08;;;21.65;;
35907;SDS011;22003;50.320;8.054;2022-12-01T13:43:18;48.30;;;19.25;;
35907;SDS011;22003;50.320;8.054;2022-12-01T13:45:44;48.63;;;18.92;;
35907;SDS011;22003;50.320;8.054;2022-12-01T13:48:26;45.67;;;19.55;;
35907;SDS011;22003;50.320;8.054;2022-12-01T13:55:55;44.08;;;18.95;;
35907;SDS011;22003;50.320;8.054;2022-12-01T13:58:23;40.80;;;17.65;;
35907;SDS011;22003;50.320;8.054;2022-12-01T14:00:48;46.85;;;19.27;;
35907;SDS011;22003;50.320;8.054;2022-12-01T14:05:53;41.50;;;17.13;;
35907;SDS011;22003;50.320;8.054;2022-12-01T14:08:24;35.22;;;16.75;;
35907;SDS011;22003;50.320;8.054;2022-12-01T14:11:36;39.53;;;17.10;;
35907;SDS011;22003;50.320;8.054;2022-12-01T14:13:48;38.95;;;16.40;;
35907;SDS011;22003;50.320;8.054;2022-12-01T14:16:14;40.22;;;16.98;;
35907;SDS011;22003;50.320;8.054;2022-12-01T14:18:40;43.93;;;18.43;;
35907;SDS011;22003;50.320;8.054;2022-12-01T14:21:07;38.03;;;17.30;;
35907;SDS011;22003;50.320;8.054;2022-12-01T14:23:57;36.95;;;17.25;;
35907;SDS011;22003;50.320;8.054;2022-12-01T14:26:21;41.67;;;16.88;;
35907;SDS011;22003;50.320;8.054;2022-12-01T14:36:35;36.00;;;16.50;;
35907;SDS011;22003;50.320;8.054;2022-12-01T14:39:05;36.83;;;15.15;;
35907;SDS011;22003;50.320;8.054;2022-12-01T14:41:45;33.47;;;15.02;;
35907;SDS011;22003;50.320;8.054;2022-12-01T14:44:14;39.22;;;17.05;;
35907;SDS011;22003;50.320;8.054;2022-12-01T14:46:50;35.08;;;15.77;;
35907;SDS011;22003;50.320;8.054;2022-12-01T14:49:19;37.05;;;14.98;;
35907;SDS011;22003;50.320;8.054;2022-12-01T14:51:46;35.28;;;15.13;;
35907;SDS011;22003;50.320;8.054;2022-12-01T14:54:26;36.30;;;15.65;;
35907;SDS011;22003;50.320;8.054;2022-12-01T14:56:53;38.47;;;16.00;;
35907;SDS011;22003;50.320;8.054;2022-12-01T14:59:24;34.67;;;15.55;;
35907;SDS011;22003;50.320;8.054;2022-12-01T15:01:50;32.25;;;14.98;;
35907;SDS011;22003;50.320;8.054;2022-12-01T15:04:16;32.95;;;15.60;;
35907;SDS011;22003;50.320;8.054;2022-12-01T15:06:42;35.97;;;16.83;;
35907;SDS011;22003;50.320;8.054;2022-12-01T15:09:14;35.45;;;14.98;;
35907;SDS011;22003;50.320;8.054;2022-12-01T15:12:01;33.50;;;15.80;;
35907;SDS011;22003;50.320;8.054;2022-12-01T15:14:33;36.03;;;14.40;;
35907;SDS011;22003;50.320;8.054;2022-12-01T15:16:58;36.63;;;16.08;;
35907;SDS011;22003;50.320;8.054;2022-12-01T15:19:32;31.52;;;15.18;;
35907;SDS011;22003;50.320;8.054;2022-12-01T15:21:58;31.65;;;14.93;;
35907;SDS011;22003;50.320;8.054;2022-12-01T15:24:24;37.80;;;15.88;;
35907;SDS011;22003;50.320;8.054;2022-12-01T15:26:51;36.78;;;16.25;;
35907;SDS011;22003;50.320;8.054;2022-12-01T15:29:23;34.30;;;14.57;;
35907;SDS011;22003;50.320;8.054;2022-12-01T15:31:49;42.92;;;16.42;;
35907;SDS011;22003;50.320;8.054;2022-12-01T15:34:16;30.17;;;14.53;;
35907;SDS011;22003;50.320;8.054;2022-12-01T15:36:43;33.60;;;15.00;;
35907;SDS011;22003;50.320;8.054;2022-12-01T15:39:11;31.73;;;15.85;;
35907;SDS011;22003;50.320;8.054;2022-12-01T15:41:37;34.80;;;15.48;;
35907;SDS011;22003;50.320;8.054;2022-12-01T15:44:04;35.17;;;15.95;;
35907;SDS011;22003;50.320;8.054;2022-12-01T15:46:38;37.70;;;16.52;;
35907;SDS011;22003;50.320;8.054;2022-12-01T15:49:07;35.05;;;15.45;;
35907;SDS011;22003;50.320;8.054;2022-12-01T15:51:32;35.90;;;15.20;;
35907;SDS011;22003;50.320;8.054;2022-12-01T15:53:58;32.95;;;15.00;;
35907;SDS011;22003;50.320;8.054;2022-12-01T15:56:45;36.03;;;16.35;;
35907;SDS011;22003;50.320;8.054;2022-12-01T16:01:38;36.53;;;15.75;;
35907;SDS011;22003;50.320;8.054;2022-12-01T16:04:05;34.53;;;15.98;;
35907;SDS011;22003;50.320;8.054;2022-12-01T16:06:37;32.25;;;13.38;;
35907;SDS011;22003;50.320;8.054;2022-12-01T16:09:04;37.85;;;15.27;;
35907;SDS011;22003;50.320;8.054;2022-12-01T16:11:30;32.20;;;15.38;;
35907;SDS011;22003;50.320;8.054;2022-12-01T16:16:42;31.30;;;15.23;;
35907;SDS011;22003;50.320;8.054;2022-12-01T16:21:41;34.90;;;15.60;;
35907;SDS011;22003;50.320;8.054;2022-12-01T16:24:10;39.17;;;16.23;;
35907;SDS011;22003;50.320;8.054;2022-12-01T16:26:37;34.72;;;15.25;;
35907;SDS011;22003;50.320;8.054;2022-12-01T16:29:16;37.67;;;15.93;;
35907;SDS011;22003;50.320;8.054;2022-12-01T16:31:43;34.60;;;15.90;;
35907;SDS011;22003;50.320;8.054;2022-12-01T16:34:11;34.67;;;15.00;;
35907;SDS011;22003;50.320;8.054;2022-12-01T16:36:38;36.00;;;16.00;;
35907;SDS011;22003;50.320;8.054;2022-12-01T16:39:05;38.00;;;16.23;;
35907;SDS011;22003;50.320;8.054;2022-12-01T16:41:30;29.55;;;14.57;;
35907;SDS011;22003;50.320;8.054;2022-12-01T16:43:59;30.23;;;13.57;;
35907;SDS011;22003;50.320;8.054;2022-12-01T16:46:24;31.60;;;13.90;;
35907;SDS011;22003;50.320;8.054;2022-12-01T16:48:49;38.03;;;15.23;;
35907;SDS011;22003;50.320;8.054;2022-12-01T16:51:14;34.88;;;15.75;;
35907;SDS011;22003;50.320;8.054;2022-12-01T16:53:39;37.55;;;14.57;;
35907;SDS011;22003;50.320;8.054;2022-12-01T16:56:05;36.22;;;14.32;;
35907;SDS011;22003;50.320;8.054;2022-12-01T16:58:30;34.33;;;14.82;;
35907;SDS011;22003;50.320;8.054;2022-12-01T17:00:55;31.40;;;14.27;;
35907;SDS011;22003;50.320;8.054;2022-12-01T17:03:26;33.58;;;14.90;;
35907;SDS011;22003;50.320;8.054;2022-12-01T17:05:51;32.08;;;13.82;;
35907;SDS011;22003;50.320;8.054;2022-12-01T17:08:17;29.33;;;13.02;;
35907;SDS011;22003;50.320;8.054;2022-12-01T17:10:43;32.42;;;12.38;;
35907;SDS011;22003;50.320;8.054;2022-12-01T17:13:09;30.58;;;13.02;;
35907;SDS011;22003;50.320;8.054;2022-12-01T17:15:34;32.40;;;12.48;;
35907;SDS011;22003;50.320;8.054;2022-12-01T17:17:59;25.33;;;11.30;;
35907;SDS011;22003;50.320;8.054;2022-12-01T17:20:25;28.95;;;12.82;;
35907;SDS011;22003;50.320;8.054;2022-12-01T17:22:50;29.95;;;12.57;;
35907;SDS011;22003;50.320;8.054;2022-12-01T17:25:15;28.60;;;11.88;;
35907;SDS011;22003;50.320;8.054;2022-12-01T17:27:40;28.42;;;13.15;;
35907;SDS011;22003;50.320;8.054;2022-12-01T17:30:07;26.85;;;12.60;;
35907;SDS011;22003;50.320;8.054;2022-12-01T17:32:33;30.85;;;12.88;;
35907;SDS011;22003;50.320;8.054;2022-12-01T17:34:58;30.85;;;13.48;;
35907;SDS011;22003;50.320;8.054;2022-12-01T17:37:24;29.10;;;12.30;;
35907;SDS011;22003;50.320;8.054;2022-12-01T17:39:54;27.50;;;13.50;;
35907;SDS011;22003;50.320;8.054;2022-12-01T17:42:19;26.35;;;12.45;;
35907;SDS011;22003;50.320;8.054;2022-12-01T17:44:44;28.20;;;12.90;;
35907;SDS011;22003;50.320;8.054;2022-12-01T17:47:10;29.77;;;12.57;;
35907;SDS011;22003;50.320;8.054;2022-12-01T17:49:35;30.02;;;13.10;;
35907;SDS011;22003;50.320;8.054;2022-12-01T17:52:01;30.45;;;14.20;;
35907;SDS011;22003;50.320;8.054;2022-12-01T17:54:26;27.27;;;11.65;;
35907;SDS011;22003;50.320;8.054;2022-12-01T17:56:52;28.20;;;12.60;;
35907;SDS011;22003;50.320;8.054;2022-12-01T17:59:17;30.10;;;13.60;;
35907;SDS011;22003;50.320;8.054;2022-12-01T18:01:42;28.55;;;12.95;;
35907;SDS011;22003;50.320;8.054;2022-12-01T18:04:07;30.83;;;13.65;;
35907;SDS011;22003;50.320;8.054;2022-12-01T18:06:32;24.40;;;13.10;;
35907;SDS011;22003;50.320;8.054;2022-12-01T18:08:58;30.58;;;13.85;;
35907;SDS011;22003;50.320;8.054;2022-12-01T18:11:23;31.38;;;13.68;;
35907;SDS011;22003;50.320;8.054;2022-12-01T18:13:49;30.25;;;13.65;;
35907;SDS011;22003;50.320;8.054;2022-12-01T18:18:39;30.98;;;14.93;;
35907;SDS011;22003;50.320;8.054;2022-12-01T18:21:05;30.55;;;13.80;;
35907;SDS011;22003;50.320;8.054;2022-12-01T18:23:30;35.03;;;16.75;;
35907;SDS011;22003;50.320;8.054;2022-12-01T18:25:55;33.70;;;15.90;;
35907;SDS011;22003;50.320;8.054;2022-12-01T18:28:20;32.63;;;15.25;;
35907;SDS011;22003;50.320;8.054;2022-12-01T18:30:46;35.50;;;16.10;;
35907;SDS011;22003;50.320;8.054;2022-12-01T18:33:11;34.67;;;14.70;;
35907;SDS011;22003;50.320;8.054;2022-12-01T18:35:43;36.80;;;15.95;;
35907;SDS011;22003;50.320;8.054;2022-12-01T18:38:09;36.08;;;15.57;;
35907;SDS011;22003;50.320;8.054;2022-12-01T18:40:37;34.63;;;16.00;;
35907;SDS011;22003;50.320;8.054;2022-12-01T18:43:03;33.92;;;15.00;;
35907;SDS011;22003;50.320;8.054;2022-12-01T18:45:28;37.30;;;15.43;;
35907;SDS011;22003;50.320;8.054;2022-12-01T18:47:53;35.45;;;15.48;;
35907;SDS011;22003;50.320;8.054;2022-12-01T18:50:18;36.25;;;16.02;;
35907;SDS011;22003;50.320;8.054;2022-12-01T18:52:43;36.30;;;15.60;;
35907;SDS011;22003;50.320;8.054;2022-12-01T18:55:08;36.45;;;15.35;;
35907;SDS011;22003;50.320;8.054;2022-12-01T18:57:34;37.22;;;16.20;;
35907;SDS011;22003;50.320;8.054;2022-12-01T18:59:59;41.15;;;17.13;;
35907;SDS011;22003;50.320;8.054;2022-12-01T19:02:24;35.80;;;16.75;;
35907;SDS011;22003;50.320;8.054;2022-12-01T19:04:50;39.72;;;17.20;;
35907;SDS011;22003;50.320;8.054;2022-12-01T19:07:15;38.70;;;16.23;;
35907;SDS011;22003;50.320;8.054;2022-12-01T19:09:40;35.38;;;16.52;;
35907;SDS011;22003;50.320;8.054;2022-12-01T19:12:05;29.33;;;14.63;;
35907;SDS011;22003;50.320;8.054;2022-12-01T19:14:31;35.95;;;16.08;;
35907;SDS011;22003;50.320;8.054;2022-12-01T19:16:56;39.38;;;17.08;;
35907;SDS011;22003;50.320;8.054;2022-12-01T19:19:21;35.53;;;15.63;;
35907;SDS011;22003;50.320;8.054;2022-12-01T19:21:47;35.10;;;16.90;;
35907;SDS011;22003;50.320;8.054;2022-12-01T19:24:12;36.50;;;17.50;;
35907;SDS011;22003;50.320;8.054;2022-12-01T19:26:37;38.42;;;15.90;;
35907;SDS011;22003;50.320;8.054;2022-12-01T19:29:02;41.85;;;17.73;;
35907;SDS011;22003;50.320;8.054;2022-12-01T19:31:28;36.63;;;17.08;;
35907;SDS011;22003;50.320;8.054;2022-12-01T19:33:53;36.33;;;16.60;;
35907;SDS011;22003;50.320;8.054;2022-12-01T19:36:20;36.08;;;16.33;;
35907;SDS011;22003;50.320;8.054;2022-12-01T19:38:45;38.50;;;16.70;;
35907;SDS011;22003;50.320;8.054;2022-12-01T19:41:11;41.13;;;17.45;;
35907;SDS011;22003;50.320;8.054;2022-12-01T19:43:37;39.00;;;17.75;;
35907;SDS011;22003;50.320;8.054;2022-12-01T19:46:03;37.53;;;17.13;;
35907;SDS011;22003;50.320;8.054;2022-12-01T19:48:28;44.15;;;18.60;;
35907;SDS011;22003;50.320;8.054;2022-12-01T19:50:53;38.15;;;16.60;;
35907;SDS011;22003;50.320;8.054;2022-12-01T19:53:18;37.50;;;17.07;;
35907;SDS011;22003;50.320;8.054;2022-12-01T19:55:43;36.33;;;16.00;;
35907;SDS011;22003;50.320;8.054;2022-12-01T19:58:08;39.58;;;16.92;;
35907;SDS011;22003;50.320;8.054;2022-12-01T20:00:34;35.50;;;16.08;;
35907;SDS011;22003;50.320;8.054;2022-12-01T20:02:59;38.53;;;16.93;;
35907;SDS011;22003;50.320;8.054;2022-12-01T20:05:24;40.40;;;17.80;;
35907;SDS011;22003;50.320;8.054;2022-12-01T20:07:49;37.47;;;18.52;;
35907;SDS011;22003;50.320;8.054;2022-12-01T20:10:15;41.47;;;18.45;;
35907;SDS011;22003;50.320;8.054;2022-12-01T20:12:44;38.10;;;17.63;;
35907;SDS011;22003;50.320;8.054;2022-12-01T20:15:09;44.53;;;18.80;;
35907;SDS011;22003;50.320;8.054;2022-12-01T20:17:35;46.28;;;18.63;;
35907;SDS011;22003;50.320;8.054;2022-12-01T20:20:01;43.40;;;19.02;;
35907;SDS011;22003;50.320;8.054;2022-12-01T20:22:29;46.33;;;18.85;;
35907;SDS011;22003;50.320;8.054;2022-12-01T20:27:19;40.53;;;18.98;;
35907;SDS011;22003;50.320;8.054;2022-12-01T20:29:44;44.28;;;18.85;;
35907;SDS011;22003;50.320;8.054;2022-12-01T20:32:09;51.70;;;21.15;;
35907;SDS011;22003;50.320;8.054;2022-12-01T20:34:35;47.20;;;19.90;;